Flight Track Log - Related Links

Times and Time Zones

All times are in EDT time to prevent confusion due to time zone crossing. See the SKW7397 flight status page for this flight to view local times or setup timezone preferences in your user account.

Time Position Orientation Groundspeed Altitude Reporting Facility
EDT Latitude Longitude Course Direction KTS MPH feet Rate Location/Type
Fri 12:06:02 AM 40.8092 -112.0039 217° Southwest 170 196 5,000  Level Salt Lake Center
Fri 12:07:09 AM 40.8264 -112.0672 290° West 216 249 6,700 1,746 Climbing Salt Lake Center
Fri 12:08:16 AM 40.8167 -112.1856 264° West 277 319 8,900 1,967 Climbing Salt Lake Center
Fri 12:09:11 AM 40.7792 -112.2533 234° Southwest 300 345 10,700 2,083 Climbing Salt Lake Center
Fri 12:09:28 AM 40.7483 -112.2764 210° Southwest 306 352 11,400 1,645 Climbing Salt Lake Center
Fri 12:10:00 AM 40.3417 -112.3483 189° South  Level FlightAware Approximate
Fri 12:10:13 AM 40.6953 -112.2886 190° South 318 366 12,400  Level Salt Lake Center
Fri 12:11:00 AM 40.2229 -112.4271 217° Southwest  Level FlightAware Approximate
Fri 12:11:14 AM 40.5839 -112.3092 188° South 336 387 14,900  Level Salt Lake Center
Fri 12:12:15 AM 40.4892 -112.3272 188° South 344 396 16,800 1,623 Climbing Salt Lake Center
Fri 12:13:16 AM 40.3897 -112.3486 189° South 362 417 18,200 1,415 Climbing Salt Lake Center
Fri 12:14:18 AM 40.2928 -112.3897 198° South 370 426 19,700 1,415 Climbing Salt Lake Center
Fri 12:15:19 AM 40.1997 -112.4569 209° Southwest 381 438 21,100 1,279 Climbing Salt Lake Center
Fri 12:16:20 AM 40.1042 -112.5242 208° Southwest 390 449 22,300 1,073 Climbing Salt Lake Center
Fri 12:17:22 AM 40.0069 -112.5931 208° Southwest 401 461 23,300 1,024 Climbing Salt Lake Center
Fri 12:18:23 AM 39.9100 -112.6631 209° Southwest 400 460 24,400 1,131 Climbing Salt Lake Center
Fri 12:19:24 AM 39.8078 -112.7297 207° Southwest 407 468 25,600 780 Climbing Salt Lake Center
Fri 12:20:26 AM 39.6889 -112.8119 208° Southwest 416 479 26,000 195 Climbing Salt Lake Center
Fri 12:21:27 AM 39.5664 -112.8342 188° South 444 511 26,000  Level Salt Lake Center
Fri 12:22:28 AM 39.4422 -112.8528 187° South 452 520 26,000  Level Salt Lake Center
Fri 12:23:30 AM 39.3186 -112.8692 186° South 449 517 26,000  Level Salt Lake Center
Fri 12:24:31 AM 39.1947 -112.8875 187° South 450 518 26,000  Level Salt Lake Center
Fri 12:25:32 AM 39.0714 -112.9036 186° South 448 516 26,000  Level Salt Lake Center
Fri 12:26:34 AM 38.9486 -112.9206 186° South 446 513 26,000  Level Salt Lake Center
Fri 12:27:35 AM 38.8022 -112.9400 186° South 443 510 26,000  Level Salt Lake Center
Fri 12:28:36 AM 38.6797 -112.9553 186° South 443 510 26,000  Level Salt Lake Center
Fri 12:29:37 AM 38.5581 -112.9711 186° South 441 507 26,000  Level Salt Lake Center
Fri 12:30:39 AM 38.4367 -112.9878 186° South 440 506 26,000  Level Salt Lake Center
Fri 12:31:40 AM 38.3150 -113.0044 186° South 441 507 26,000  Level Salt Lake Center
Fri 12:32:41 AM 38.1942 -113.0194 186° South 439 505 26,000 -984 Level Salt Lake Center
Fri 12:33:42 AM 38.0711 -113.0350 186° South 444 511 24,000 -2,585 Descending Salt Lake Center
Fri 12:34:44 AM 37.9494 -113.0506 186° South 444 511 20,700 -2,878 Descending Salt Lake Center
Fri 12:35:45 AM 37.8136 -113.0600 183° South 418 481 18,100 -1,672 Descending Salt Lake Center
Fri 12:36:46 AM 37.7108 -113.0272 166° South 391 450 17,300 -1,426 Descending Salt Lake Center
Fri 12:37:47 AM 37.6147 -112.9986 167° South 371 427 15,200 -1,131 Descending Salt Lake Center
Fri 12:38:48 AM 37.5269 -112.9936 177° South 330 380 15,000 -98 Descending Salt Lake Center
Fri 12:39:49 AM 37.4411 -112.9856 176° South 315 362 15,000 -634 Level Salt Lake Center
Fri 12:40:51 AM 37.3681 -113.0439 212° Southwest 320 368 13,700 -976 Descending Salt Lake Center
Fri 12:41:52 AM 37.3153 -113.1256 231° Southwest 306 352 13,000 -885 Descending Salt Lake Center
Fri 12:42:53 AM 37.2822 -113.2106 244° Southwest 279 321 11,900 -1,328 Descending Salt Lake Center
Fri 12:43:54 AM 37.2444 -113.3042 243° Southwest 257 296 10,300 -1,525 Descending Salt Lake Center
Fri 12:44:55 AM 37.2128 -113.3764 241° Southwest 242 278 8,800 -1,525 Descending Salt Lake Center
Fri 12:45:56 AM 37.1775 -113.4328 232° Southwest 215 247 7,200 -1,574 Descending Salt Lake Center

Login

Don't have an account? Register now (free) for customized features, flight alerts, and more!